createdAt,value
2022-11-03T22:43:58.602Z,71.59
2022-11-03T22:44:57.289Z,71.80
2022-11-03T22:45:57.287Z,71.82
2022-11-03T22:46:57.271Z,71.81
2022-11-03T22:47:57.723Z,71.78
2022-11-03T22:48:57.337Z,71.78
2022-11-03T22:49:57.391Z,71.76
2022-11-03T22:50:57.231Z,71.71
2022-11-03T22:51:57.221Z,71.74
2022-11-03T22:52:57.216Z,71.75
2022-11-03T22:53:57.197Z,71.80
2022-11-03T22:54:57.554Z,71.79
2022-11-03T22:55:57.176Z,71.82
2022-11-03T22:56:57.172Z,72.03
2022-11-03T22:57:57.170Z,72.12
2022-11-03T22:58:57.151Z,72.10
2022-11-03T22:59:57.121Z,72.08
2022-11-03T23:00:57.510Z,72.06
2022-11-03T23:01:57.215Z,72.05
2022-11-03T23:02:57.101Z,72.01
2022-11-03T23:03:57.097Z,71.93
2022-11-03T23:04:57.081Z,71.84
2022-11-03T23:05:57.069Z,71.79
2022-11-03T23:06:57.337Z,71.78
2022-11-03T23:07:57.049Z,71.80
2022-11-03T23:08:57.040Z,71.80
2022-11-03T23:09:57.043Z,71.78
2022-11-03T23:10:57.036Z,71.75
2022-11-03T23:11:57.010Z,71.79
2022-11-03T23:12:57.212Z,71.83
2022-11-03T23:13:56.991Z,71.85
2022-11-03T23:14:56.986Z,71.85
2022-11-03T23:15:56.959Z,71.90
2022-11-03T23:16:56.969Z,71.88
2022-11-03T23:17:56.944Z,71.88
2022-11-03T23:18:57.150Z,71.89
2022-11-03T23:19:56.921Z,71.89
2022-11-03T23:20:56.916Z,71.89
2022-11-03T23:21:56.900Z,71.97
2022-11-03T23:22:56.891Z,72.02
2022-11-03T23:23:56.881Z,72.03
2022-11-03T23:24:57.023Z,72.06
2022-11-03T23:25:57.571Z,72.00
2022-11-03T23:26:56.851Z,72.04
2022-11-03T23:27:56.841Z,72.10
2022-11-03T23:28:56.839Z,72.18
2022-11-03T23:29:57.001Z,72.23
2022-11-03T23:30:56.807Z,72.31
2022-11-03T23:31:56.806Z,72.40
2022-11-03T23:32:56.941Z,72.51
2022-11-03T23:33:56.767Z,72.62
2022-11-03T23:34:56.761Z,72.55
2022-11-03T23:35:56.764Z,72.65
2022-11-03T23:36:56.740Z,72.77
2022-11-03T23:37:56.720Z,72.92
2022-11-03T23:38:56.919Z,73.05
2022-11-03T23:39:56.717Z,73.14
2022-11-03T23:40:56.689Z,73.14
2022-11-03T23:41:56.752Z,73.28
2022-11-03T23:42:56.738Z,73.41
2022-11-03T23:43:56.671Z,73.52
2022-11-03T23:44:56.822Z,73.62
2022-11-03T23:45:56.629Z,73.72
2022-11-03T23:46:56.639Z,73.85
2022-11-03T23:47:56.779Z,73.87
2022-11-03T23:48:56.631Z,73.84
2022-11-03T23:49:56.613Z,73.81
2022-11-03T23:50:56.606Z,73.97
2022-11-03T23:51:56.594Z,73.93
2022-11-03T23:52:56.586Z,73.86
2022-11-03T23:53:56.850Z,73.96
2022-11-03T23:54:56.589Z,74.10
2022-11-03T23:55:56.587Z,74.29
2022-11-03T23:56:56.556Z,74.43
2022-11-03T23:57:56.509Z,74.55
2022-11-03T23:58:56.512Z,74.63
2022-11-03T23:59:56.668Z,74.85
